createdAt,value
2019-02-18T00:00:50.264Z,1003.40
2019-02-18T00:02:01.417Z,1003.39
2019-02-18T00:03:12.624Z,1003.37
2019-02-18T00:04:23.262Z,1003.36
2019-02-18T00:05:33.916Z,1003.42
2019-02-18T00:06:45.070Z,1003.35
2019-02-18T00:07:56.204Z,1003.38
2019-02-18T00:09:07.347Z,1003.37
2019-02-18T00:10:19.475Z,1003.39
2019-02-18T00:11:30.624Z,1003.40
2019-02-18T00:12:41.778Z,1003.41
2019-02-18T00:13:52.905Z,1003.38
2019-02-18T00:15:04.037Z,1003.45
2019-02-18T00:16:15.186Z,1003.41
2019-02-18T00:17:26.324Z,1003.40
2019-02-18T00:18:37.457Z,1003.37
2019-02-18T00:19:48.090Z,1003.36
2019-02-18T00:20:59.250Z,1003.39
2019-02-18T00:22:11.371Z,1003.41
2019-02-18T00:23:22.624Z,1003.40
2019-02-18T00:24:33.759Z,1003.40
2019-02-18T00:25:44.898Z,1003.40
2019-02-18T00:26:55.544Z,1003.39
2019-02-18T00:28:06.746Z,1003.41
2019-02-18T00:29:17.900Z,1003.39
2019-02-18T00:30:29.033Z,1003.41
2019-02-18T00:31:40.172Z,1003.42
2019-02-18T00:32:52.299Z,1003.43
2019-02-18T00:34:03.433Z,1003.40
2019-02-18T00:35:14.620Z,1003.41
2019-02-18T00:36:25.281Z,1003.43
2019-02-18T00:37:37.421Z,1003.38
2019-02-18T00:38:48.655Z,1003.37
2019-02-18T00:39:59.751Z,1003.35
2019-02-18T00:41:10.876Z,1003.36
2019-02-18T00:42:22.025Z,1003.42
2019-02-18T00:43:32.703Z,1003.42
2019-02-18T00:44:43.850Z,1003.44
2019-02-18T00:45:54.987Z,1003.43
2019-02-18T00:47:06.121Z,1003.38
2019-02-18T00:48:17.254Z,1003.42
2019-02-18T00:49:29.381Z,1003.43
2019-02-18T00:50:40.510Z,1003.44
2019-02-18T00:51:52.156Z,1003.41
2019-02-18T00:53:04.085Z,1003.45
2019-02-18T00:54:14.432Z,1003.44
2019-02-18T00:55:25.567Z,1003.46
2019-02-18T00:56:36.717Z,1003.48
2019-02-18T00:57:47.853Z,1003.49
2019-02-18T00:58:58.999Z,1003.44
2019-02-18T01:00:11.134Z,1003.47
2019-02-18T01:01:22.258Z,1003.46
2019-02-18T01:02:33.396Z,1003.41
2019-02-18T01:03:44.634Z,1003.41
2019-02-18T01:04:55.762Z,1003.37
2019-02-18T01:06:06.897Z,1003.35
2019-02-18T01:07:18.034Z,1003.35
2019-02-18T01:08:29.159Z,1003.35
2019-02-18T01:09:39.789Z,1003.32
2019-02-18T01:10:50.924Z,1003.35
2019-02-18T01:12:02.062Z,1003.36
2019-02-18T01:13:12.698Z,1003.32
2019-02-18T01:14:23.839Z,1003.36
2019-02-18T01:15:34.953Z,1003.37
2019-02-18T01:16:46.095Z,1003.33
2019-02-18T01:17:56.726Z,1003.34
2019-02-18T01:19:07.849Z,1003.33
2019-02-18T01:20:18.983Z,1003.27
2019-02-18T01:21:30.105Z,1003.31
2019-02-18T01:22:41.243Z,1003.35
2019-02-18T01:23:52.375Z,1003.31
2019-02-18T01:25:03.504Z,1003.34
2019-02-18T01:26:14.654Z,1003.34
2019-02-18T01:27:25.789Z,1003.29
2019-02-18T01:28:36.915Z,1003.32
2019-02-18T01:29:48.050Z,1003.35
2019-02-18T01:30:59.185Z,1003.30
2019-02-18T01:32:10.308Z,1003.34
2019-02-18T01:33:21.752Z,1003.34
2019-02-18T01:34:32.875Z,1003.33
2019-02-18T01:35:43.501Z,1003.33
2019-02-18T01:36:54.132Z,1003.27
2019-02-18T01:38:05.271Z,1003.29
2019-02-18T01:39:16.392Z,1003.25
2019-02-18T01:40:27.525Z,1003.29
2019-02-18T01:41:38.662Z,1003.31
2019-02-18T01:42:49.298Z,1003.28
2019-02-18T01:44:00.446Z,1003.29
2019-02-18T01:45:11.575Z,1003.32
2019-02-18T01:46:22.696Z,1003.31
2019-02-18T01:47:33.830Z,1003.29
2019-02-18T01:48:44.962Z,1003.31
2019-02-18T01:49:56.086Z,1003.29
2019-02-18T01:51:07.210Z,1003.26
2019-02-18T01:52:17.848Z,1003.29
2019-02-18T01:53:28.979Z,1003.25
2019-02-18T01:54:40.109Z,1003.23
2019-02-18T01:55:50.739Z,1003.25
2019-02-18T01:57:01.875Z,1003.23
2019-02-18T01:58:12.994Z,1003.22
2019-02-18T01:59:24.120Z,1003.22
2019-02-18T02:00:34.746Z,1003.23
2019-02-18T02:01:45.867Z,1003.24
2019-02-18T02:02:56.983Z,1003.26
2019-02-18T02:04:08.123Z,1003.21
2019-02-18T02:05:19.238Z,1003.23
2019-02-18T02:06:31.366Z,1003.25
2019-02-18T02:07:42.644Z,1003.22
2019-02-18T02:08:53.762Z,1003.22
2019-02-18T02:10:04.885Z,1003.23
2019-02-18T02:11:16.005Z,1003.23
2019-02-18T02:12:28.128Z,1003.19
2019-02-18T02:13:39.246Z,1003.18
2019-02-18T02:14:53.343Z,1003.22
2019-02-18T02:16:03.977Z,1003.18
2019-02-18T02:17:15.105Z,1003.21
2019-02-18T02:18:25.730Z,1003.26
2019-02-18T02:19:36.360Z,1003.26
2019-02-18T02:20:46.993Z,1003.21
2019-02-18T02:21:58.132Z,1003.19
2019-02-18T02:23:09.248Z,1003.17
2019-02-18T02:24:20.377Z,1003.20
2019-02-18T02:25:31.507Z,1003.17
2019-02-18T02:26:42.133Z,1003.24
2019-02-18T02:27:52.765Z,1003.16
2019-02-18T02:29:03.897Z,1003.15
2019-02-18T02:30:15.013Z,1003.16
2019-02-18T02:31:26.143Z,1003.13
2019-02-18T02:32:37.269Z,1003.21
2019-02-18T02:33:48.396Z,1003.16
2019-02-18T02:34:59.509Z,1003.16
2019-02-18T02:36:10.654Z,1003.16
2019-02-18T02:37:21.771Z,1003.14
2019-02-18T02:38:32.890Z,1003.13
2019-02-18T02:39:43.516Z,1003.14
2019-02-18T02:40:54.151Z,1003.09
2019-02-18T02:42:05.286Z,1003.11
2019-02-18T02:43:16.389Z,1003.14
2019-02-18T02:44:27.505Z,1003.11
2019-02-18T02:45:38.630Z,1003.10
2019-02-18T02:46:49.775Z,1003.07
2019-02-18T02:48:00.910Z,1003.06
2019-02-18T02:49:12.027Z,1003.05
2019-02-18T02:50:23.142Z,1003.03
2019-02-18T02:51:34.272Z,1003.06
2019-02-18T02:52:45.400Z,1003.03
2019-02-18T02:53:56.518Z,1003.02
2019-02-18T02:55:07.632Z,1003.02
2019-02-18T02:56:19.540Z,1003.03
2019-02-18T02:57:30.682Z,1003.08
2019-02-18T02:58:41.302Z,1003.04
2019-02-18T02:59:52.415Z,1003.06
2019-02-18T03:01:03.538Z,1003.03
2019-02-18T03:02:14.684Z,1003.06
2019-02-18T03:03:25.793Z,1003.06
2019-02-18T03:04:36.424Z,1003.08
2019-02-18T03:05:47.059Z,1003.11
2019-02-18T03:06:58.173Z,1003.10
2019-02-18T03:08:20.017Z,1003.09
2019-02-18T03:09:20.405Z,1003.09
2019-02-18T03:10:31.535Z,1003.11
2019-02-18T03:11:42.655Z,1003.14
2019-02-18T03:12:54.844Z,1003.12
2019-02-18T03:14:05.392Z,1003.16
2019-02-18T03:15:16.008Z,1003.17
2019-02-18T03:16:27.118Z,1003.14
2019-02-18T03:17:38.248Z,1003.18
2019-02-18T03:18:49.371Z,1003.16
2019-02-18T03:20:00.615Z,1003.11
2019-02-18T03:21:11.238Z,1003.15
2019-02-18T03:22:22.357Z,1003.11
2019-02-18T03:23:33.491Z,1003.13
2019-02-18T03:24:44.622Z,1003.13
2019-02-18T03:25:55.242Z,1003.15
2019-02-18T03:27:07.371Z,1003.11
2019-02-18T03:28:18.612Z,1003.12
2019-02-18T03:29:29.239Z,1003.10
2019-02-18T03:30:40.368Z,1003.13
2019-02-18T03:31:51.004Z,1003.14
2019-02-18T03:33:02.116Z,1003.13
2019-02-18T03:34:13.226Z,1003.14
2019-02-18T03:35:24.350Z,1003.09
2019-02-18T03:36:35.446Z,1003.10
2019-02-18T03:37:46.092Z,1003.09
2019-02-18T03:38:57.213Z,1003.11
2019-02-18T03:40:08.346Z,1003.11
2019-02-18T03:41:19.462Z,1003.09
2019-02-18T03:42:30.574Z,1003.06
2019-02-18T03:43:41.201Z,1003.10
2019-02-18T03:44:52.311Z,1003.11
2019-02-18T03:46:03.945Z,1003.10
2019-02-18T03:47:15.050Z,1003.12
2019-02-18T03:48:26.188Z,1003.13
2019-02-18T03:49:37.307Z,1003.11
2019-02-18T03:50:49.409Z,1003.13
2019-02-18T03:52:00.629Z,1003.13
2019-02-18T03:53:11.730Z,1003.07
2019-02-18T03:54:22.353Z,1003.06
2019-02-18T03:55:33.481Z,1003.07
2019-02-18T03:56:44.089Z,1003.02
2019-02-18T03:57:55.201Z,1003.02
2019-02-18T03:59:06.314Z,1003.04
2019-02-18T04:00:16.938Z,1003.05
2019-02-18T04:01:28.047Z,1003.05
2019-02-18T04:02:38.670Z,1003.07
2019-02-18T04:03:49.785Z,1003.06
2019-02-18T04:05:00.904Z,1003.00
2019-02-18T04:06:12.019Z,1003.03
2019-02-18T04:07:24.132Z,1003.06
2019-02-18T04:08:42.538Z,1003.04
2019-02-18T04:09:46.393Z,1003.04
2019-02-18T04:10:57.011Z,1003.04
2019-02-18T04:12:08.129Z,1003.06
2019-02-18T04:13:19.222Z,1003.04
2019-02-18T04:14:30.356Z,1003.05
2019-02-18T04:15:41.464Z,1003.04
2019-02-18T04:16:52.612Z,1003.06
2019-02-18T04:18:03.727Z,1003.08
2019-02-18T04:19:14.350Z,1003.04
2019-02-18T04:20:25.605Z,1003.06
2019-02-18T04:21:36.710Z,1003.06
2019-02-18T04:22:47.816Z,1003.07
2019-02-18T04:23:58.941Z,1003.08
2019-02-18T04:25:10.056Z,1003.09
2019-02-18T04:26:21.161Z,1003.07
2019-02-18T04:27:32.281Z,1003.09
2019-02-18T04:28:43.384Z,1003.11
2019-02-18T04:29:54.507Z,1003.12
2019-02-18T04:31:05.632Z,1003.08
2019-02-18T04:32:16.249Z,1003.11
2019-02-18T04:33:26.860Z,1003.07
2019-02-18T04:34:39.003Z,1003.06
2019-02-18T04:35:50.105Z,1003.05
2019-02-18T04:37:01.205Z,1003.08
2019-02-18T04:38:12.320Z,1003.11
2019-02-18T04:39:23.437Z,1003.09
2019-02-18T04:40:35.557Z,1003.12
2019-02-18T04:41:46.662Z,1003.08
2019-02-18T04:42:57.765Z,1003.13
2019-02-18T04:44:08.883Z,1003.09
2019-02-18T04:45:20.008Z,1003.12
2019-02-18T04:46:31.141Z,1003.06
2019-02-18T04:47:42.250Z,1003.11
2019-02-18T04:48:53.348Z,1003.08
2019-02-18T04:50:04.615Z,1003.06
2019-02-18T04:51:15.722Z,1003.09
2019-02-18T04:52:26.836Z,1003.06
2019-02-18T04:53:37.943Z,1003.05
2019-02-18T04:54:49.063Z,1003.07
2019-02-18T04:56:00.181Z,1003.07
2019-02-18T04:57:11.307Z,1003.04
2019-02-18T04:58:22.416Z,1003.03
2019-02-18T04:59:33.543Z,1003.01
2019-02-18T05:00:44.156Z,1003.02
2019-02-18T05:01:55.269Z,1002.97
2019-02-18T05:03:05.881Z,1002.98
2019-02-18T05:04:16.983Z,1002.96
2019-02-18T05:05:28.094Z,1002.96
2019-02-18T05:06:39.210Z,1002.98
2019-02-18T05:07:50.313Z,1002.95
2019-02-18T05:09:05.422Z,1003.00
2019-02-18T05:10:12.030Z,1002.93
2019-02-18T05:11:23.141Z,1002.94
2019-02-18T05:12:35.239Z,1002.97
2019-02-18T05:13:47.357Z,1002.94
2019-02-18T05:14:58.634Z,1002.96
2019-02-18T05:16:09.742Z,1002.94
2019-02-18T05:17:20.863Z,1002.93
2019-02-18T05:18:31.965Z,1002.95
2019-02-18T05:19:43.067Z,1002.92
2019-02-18T05:20:54.170Z,1002.90
2019-02-18T05:22:05.278Z,1002.86
2019-02-18T05:23:16.382Z,1002.91
2019-02-18T05:24:27.495Z,1002.83
2019-02-18T05:25:38.621Z,1002.89
2019-02-18T05:26:49.238Z,1002.88
2019-02-18T05:28:00.362Z,1002.85
2019-02-18T05:29:11.459Z,1002.82
2019-02-18T05:30:22.611Z,1002.83
2019-02-18T05:31:33.726Z,1002.79
2019-02-18T05:32:44.839Z,1002.80
2019-02-18T05:33:55.944Z,1002.75
2019-02-18T05:35:07.065Z,1002.80
2019-02-18T05:36:18.166Z,1002.78
2019-02-18T05:37:29.271Z,1002.80
2019-02-18T05:38:40.369Z,1002.80
2019-02-18T05:39:51.470Z,1002.77
2019-02-18T05:41:02.582Z,1002.82
2019-02-18T05:42:13.699Z,1002.80
2019-02-18T05:43:24.818Z,1002.81
2019-02-18T05:44:35.925Z,1002.77
2019-02-18T05:45:47.034Z,1002.81
2019-02-18T05:46:58.151Z,1002.76
2019-02-18T05:48:09.260Z,1002.76
2019-02-18T05:49:20.381Z,1002.78
2019-02-18T05:50:31.494Z,1002.75
2019-02-18T05:51:42.612Z,1002.77
2019-02-18T05:52:53.724Z,1002.78
2019-02-18T05:54:04.833Z,1002.77
2019-02-18T05:55:15.927Z,1002.79
2019-02-18T05:56:27.030Z,1002.80
2019-02-18T05:57:38.153Z,1002.79
2019-02-18T05:58:49.262Z,1002.82
2019-02-18T06:00:00.506Z,1002.80
2019-02-18T06:01:11.521Z,1002.83
2019-02-18T06:02:22.622Z,1002.81
2019-02-18T06:03:33.738Z,1002.84
2019-02-18T06:04:44.916Z,1002.86
2019-02-18T06:05:56.032Z,1002.86
2019-02-18T06:07:07.132Z,1002.85
2019-02-18T06:08:18.250Z,1002.84
2019-02-18T06:09:30.387Z,1002.82
2019-02-18T06:10:40.450Z,1002.83
2019-02-18T06:11:51.562Z,1002.79
2019-02-18T06:13:02.699Z,1002.76
2019-02-18T06:14:13.801Z,1002.73
2019-02-18T06:15:24.916Z,1002.79
2019-02-18T06:16:36.032Z,1002.76
2019-02-18T06:17:47.138Z,1002.77
2019-02-18T06:18:58.253Z,1002.78
2019-02-18T06:20:09.358Z,1002.78
2019-02-18T06:21:20.628Z,1002.77
2019-02-18T06:22:31.735Z,1002.77
2019-02-18T06:23:42.848Z,1002.77
2019-02-18T06:24:53.952Z,1002.76
2019-02-18T06:26:05.071Z,1002.77
2019-02-18T06:27:16.184Z,1002.79
2019-02-18T06:28:27.315Z,1002.82
2019-02-18T06:29:38.428Z,1002.81
2019-02-18T06:30:49.531Z,1002.82
2019-02-18T06:32:00.641Z,1002.80
2019-02-18T06:33:11.792Z,1002.83
2019-02-18T06:34:22.846Z,1002.85
2019-02-18T06:35:33.946Z,1002.88
2019-02-18T06:36:45.054Z,1002.90
2019-02-18T06:37:56.150Z,1002.90
2019-02-18T06:39:07.261Z,1002.94
2019-02-18T06:40:18.364Z,1002.96
2019-02-18T06:41:29.481Z,1002.98
2019-02-18T06:42:40.622Z,1003.00
2019-02-18T06:43:51.733Z,1002.96
2019-02-18T06:45:02.854Z,1003.02
2019-02-18T06:46:13.970Z,1003.00
2019-02-18T06:47:25.303Z,1003.02
2019-02-18T06:48:36.190Z,1003.05
2019-02-18T06:49:47.291Z,1003.04
2019-02-18T06:50:58.403Z,1003.07
2019-02-18T06:52:09.519Z,1003.05
2019-02-18T06:53:20.638Z,1003.10
2019-02-18T06:54:31.738Z,1003.12
2019-02-18T06:55:42.847Z,1003.13
2019-02-18T06:56:53.972Z,1003.16
2019-02-18T06:58:05.077Z,1003.14
2019-02-18T06:59:16.186Z,1003.17
2019-02-18T07:00:27.286Z,1003.18
2019-02-18T07:01:38.412Z,1003.20
2019-02-18T07:02:49.515Z,1003.22
2019-02-18T07:04:00.632Z,1003.19
2019-02-18T07:05:11.733Z,1003.21
2019-02-18T07:06:22.837Z,1003.19
2019-02-18T07:07:34.946Z,1003.22
2019-02-18T07:08:46.770Z,1003.22
2019-02-18T07:09:57.152Z,1003.27
2019-02-18T07:11:08.271Z,1003.25
2019-02-18T07:12:19.373Z,1003.26
2019-02-18T07:13:30.625Z,1003.24
2019-02-18T07:14:41.727Z,1003.19
2019-02-18T07:15:52.840Z,1003.20
2019-02-18T07:17:03.968Z,1003.21
2019-02-18T07:18:15.082Z,1003.26
2019-02-18T07:19:26.191Z,1003.24
2019-02-18T07:20:37.307Z,1003.23
2019-02-18T07:21:48.407Z,1003.21
2019-02-18T07:22:59.528Z,1003.23
2019-02-18T07:24:10.637Z,1003.21
2019-02-18T07:25:21.746Z,1003.19
2019-02-18T07:26:32.863Z,1003.20
2019-02-18T07:27:43.971Z,1003.20
2019-02-18T07:28:56.082Z,1003.18
2019-02-18T07:30:07.198Z,1003.16
2019-02-18T07:31:18.318Z,1003.19
2019-02-18T07:32:29.432Z,1003.18
2019-02-18T07:33:40.624Z,1003.19
2019-02-18T07:34:51.742Z,1003.16
2019-02-18T07:36:02.841Z,1003.18
2019-02-18T07:37:13.957Z,1003.17
2019-02-18T07:38:25.074Z,1003.19
2019-02-18T07:39:36.179Z,1003.17
2019-02-18T07:40:47.296Z,1003.17
2019-02-18T07:41:58.406Z,1003.12
2019-02-18T07:43:09.533Z,1003.14
2019-02-18T07:44:20.651Z,1003.14
2019-02-18T07:45:31.765Z,1003.15
2019-02-18T07:46:42.874Z,1003.18
2019-02-18T07:47:53.997Z,1003.25
2019-02-18T07:49:05.103Z,1003.23
2019-02-18T07:50:20.745Z,1003.24
2019-02-18T07:51:27.337Z,1003.24
2019-02-18T07:52:38.664Z,1003.24
2019-02-18T07:53:49.783Z,1003.24
2019-02-18T07:55:00.898Z,1003.18
2019-02-18T07:56:12.005Z,1003.16
2019-02-18T07:57:23.130Z,1003.16
2019-02-18T07:58:34.253Z,1003.13
2019-02-18T07:59:45.367Z,1003.17
2019-02-18T08:00:56.633Z,1003.14
2019-02-18T08:02:07.748Z,1003.16
2019-02-18T08:03:18.870Z,1003.11
2019-02-18T08:04:29.985Z,1003.12
2019-02-18T08:05:41.106Z,1003.10
2019-02-18T08:06:52.223Z,1003.09
2019-02-18T08:08:03.348Z,1003.09
2019-02-18T08:09:14.647Z,1003.06
2019-02-18T08:10:25.755Z,1003.04
2019-02-18T08:11:36.877Z,1003.00
2019-02-18T08:12:47.990Z,1002.99
2019-02-18T08:13:59.114Z,1003.00
2019-02-18T08:15:09.744Z,1003.01
2019-02-18T08:16:20.853Z,1003.07
2019-02-18T08:17:32.042Z,1003.08
2019-02-18T08:18:43.099Z,1003.05
2019-02-18T08:19:55.224Z,1003.03
2019-02-18T08:21:06.337Z,1003.03
2019-02-18T08:22:17.451Z,1003.03
2019-02-18T08:23:28.626Z,1003.00
2019-02-18T08:24:39.755Z,1003.05
2019-02-18T08:25:50.879Z,1003.06
2019-02-18T08:27:01.991Z,1003.10
2019-02-18T08:28:13.129Z,1003.07
2019-02-18T08:29:24.236Z,1003.09
2019-02-18T08:30:35.354Z,1003.06
2019-02-18T08:31:46.627Z,1003.03
2019-02-18T08:32:57.740Z,1003.01
2019-02-18T08:34:08.872Z,1003.04
2019-02-18T08:35:19.989Z,1003.02
2019-02-18T08:36:31.122Z,1003.04
2019-02-18T08:37:42.237Z,1003.05
2019-02-18T08:38:53.356Z,1003.07
2019-02-18T08:40:04.631Z,1003.09
2019-02-18T08:41:15.761Z,1003.07
2019-02-18T08:42:26.882Z,1003.12
2019-02-18T08:43:38.028Z,1003.13
2019-02-18T08:44:49.138Z,1003.12
2019-02-18T08:46:00.258Z,1003.11
2019-02-18T08:47:11.402Z,1003.08
2019-02-18T08:48:24.117Z,1003.10
2019-02-18T08:49:33.755Z,1003.15
2019-02-18T08:50:44.882Z,1003.13
2019-02-18T08:51:56.009Z,1003.17
2019-02-18T08:53:07.146Z,1003.16
2019-02-18T08:54:18.283Z,1003.16
2019-02-18T08:55:29.426Z,1003.24
2019-02-18T08:56:40.546Z,1003.22
2019-02-18T08:57:51.674Z,1003.22
2019-02-18T08:59:02.811Z,1003.20
2019-02-18T09:00:13.957Z,1003.18
2019-02-18T09:01:25.087Z,1003.19
2019-02-18T09:02:36.215Z,1003.14
2019-02-18T09:03:47.361Z,1003.20
2019-02-18T09:04:58.654Z,1003.20
2019-02-18T09:06:09.817Z,1003.20
2019-02-18T09:07:20.461Z,1003.13
2019-02-18T09:08:31.609Z,1003.15
2019-02-18T09:09:42.744Z,1003.13
2019-02-18T09:10:53.899Z,1003.14
2019-02-18T09:12:06.035Z,1003.12
2019-02-18T09:13:17.176Z,1003.09
2019-02-18T09:14:28.329Z,1003.10
2019-02-18T09:15:39.501Z,1003.07
2019-02-18T09:16:50.633Z,1003.01
2019-02-18T09:18:01.791Z,1002.98
2019-02-18T09:19:12.939Z,1003.03
2019-02-18T09:20:25.610Z,1002.98
2019-02-18T09:21:35.233Z,1003.01
2019-02-18T09:22:46.381Z,1003.00
2019-02-18T09:23:57.530Z,1002.97
2019-02-18T09:25:08.685Z,1002.95
2019-02-18T09:26:19.839Z,1002.97
2019-02-18T09:27:31.033Z,1002.96
2019-02-18T09:28:42.179Z,1002.92
2019-02-18T09:29:53.618Z,1002.94
2019-02-18T09:31:04.778Z,1002.92
2019-02-18T09:32:15.918Z,1002.90
2019-02-18T09:33:27.069Z,1002.89
2019-02-18T09:34:38.220Z,1002.87
2019-02-18T09:35:49.419Z,1002.87
2019-02-18T09:37:00.647Z,1002.84
2019-02-18T09:38:11.793Z,1002.83
2019-02-18T09:39:30.732Z,1002.83
2019-02-18T09:40:55.104Z,1002.82
2019-02-18T09:42:06.269Z,1002.82
2019-02-18T09:43:17.429Z,1002.80
2019-02-18T09:44:28.628Z,1002.79
2019-02-18T09:45:39.784Z,1002.83
2019-02-18T09:46:50.942Z,1002.78
2019-02-18T09:48:02.110Z,1002.78
2019-02-18T09:49:13.278Z,1002.79
2019-02-18T09:50:24.463Z,1002.76
2019-02-18T09:51:35.619Z,1002.78
2019-02-18T09:52:46.779Z,1002.77
2019-02-18T09:53:57.940Z,1002.82
2019-02-18T09:55:09.104Z,1002.80
2019-02-18T09:56:20.267Z,1002.76
2019-02-18T09:57:31.427Z,1002.71
2019-02-18T09:58:42.628Z,1002.72
2019-02-18T09:59:53.795Z,1002.77
2019-02-18T10:01:04.973Z,1002.73
2019-02-18T10:02:16.143Z,1002.72
2019-02-18T10:03:32.041Z,1002.69
2019-02-18T10:04:38.631Z,1002.65
2019-02-18T10:05:49.773Z,1002.66
2019-02-18T10:07:01.245Z,1002.66
2019-02-18T10:08:12.421Z,1002.67
2019-02-18T10:09:23.597Z,1002.60
2019-02-18T10:10:34.752Z,1002.61
2019-02-18T10:11:45.971Z,1002.59
2019-02-18T10:12:56.619Z,1002.52
2019-02-18T10:14:07.852Z,1002.48
2019-02-18T10:15:19.039Z,1002.47
2019-02-18T10:16:30.354Z,1002.48
2019-02-18T10:17:41.521Z,1002.46
2019-02-18T10:18:52.689Z,1002.47
2019-02-18T10:20:03.879Z,1002.47
2019-02-18T10:21:15.058Z,1002.47
2019-02-18T10:22:26.257Z,1002.47
2019-02-18T10:23:37.432Z,1002.45
2019-02-18T10:24:50.890Z,1002.44
2019-02-18T10:25:59.305Z,1002.42
2019-02-18T10:27:10.630Z,1002.38
2019-02-18T10:28:21.813Z,1002.35
2019-02-18T10:29:33.000Z,1002.33
2019-02-18T10:31:55.362Z,1002.35
2019-02-18T10:33:06.843Z,1002.29
2019-02-18T10:34:18.024Z,1002.30
2019-02-18T10:35:29.240Z,1002.23
2019-02-18T10:36:40.418Z,1002.22
2019-02-18T10:37:55.167Z,1002.18
2019-02-18T10:39:03.238Z,1002.17
2019-02-18T10:40:14.408Z,1002.11
2019-02-18T10:41:25.607Z,1002.11
2019-02-18T10:42:36.862Z,1002.12
2019-02-18T10:43:48.046Z,1002.07
2019-02-18T10:45:12.699Z,1002.05
2019-02-18T10:46:59.888Z,1002.01
2019-02-18T10:48:11.039Z,1002.00
2019-02-18T10:49:23.132Z,1001.98
2019-02-18T10:50:33.414Z,1001.98
2019-02-18T10:51:44.634Z,1001.92
2019-02-18T10:52:56.824Z,1001.90
2019-02-18T10:54:08.015Z,1001.88
2019-02-18T10:55:19.219Z,1001.84
2019-02-18T10:56:30.399Z,1001.81
2019-02-18T10:57:41.596Z,1001.80
2019-02-18T10:58:52.786Z,1001.75
2019-02-18T11:00:03.989Z,1001.69
2019-02-18T11:01:15.174Z,1001.70
2019-02-18T11:02:25.911Z,1001.64
2019-02-18T11:03:37.110Z,1001.63
2019-02-18T11:04:48.301Z,1001.64
2019-02-18T11:05:59.502Z,1001.65
2019-02-18T11:07:10.740Z,1001.58
2019-02-18T11:08:21.960Z,1001.50
2019-02-18T11:09:33.159Z,1001.45
2019-02-18T11:10:44.375Z,1001.40
2019-02-18T11:11:55.586Z,1001.40
2019-02-18T11:13:06.811Z,1001.30
2019-02-18T11:14:18.005Z,1001.31
2019-02-18T11:15:29.209Z,1001.18
2019-02-18T11:16:40.564Z,1001.10
2019-02-18T11:17:51.779Z,1001.06
2019-02-18T11:19:03.015Z,1001.05
2019-02-18T11:20:14.206Z,1001.03
2019-02-18T11:21:25.417Z,1000.91
2019-02-18T11:22:36.811Z,1000.79
2019-02-18T11:23:48.012Z,1000.79
2019-02-18T11:24:59.224Z,1000.71
2019-02-18T11:26:10.438Z,1000.61
2019-02-18T11:27:21.658Z,1000.53
2019-02-18T11:28:32.896Z,1000.46
2019-02-18T11:29:44.113Z,1000.43
2019-02-18T11:30:55.320Z,1000.41
2019-02-18T11:32:06.626Z,1000.39
2019-02-18T11:33:17.977Z,1000.42
2019-02-18T11:34:29.204Z,1000.46
2019-02-18T11:35:40.423Z,1000.51
2019-02-18T11:36:51.649Z,1000.61
2019-02-18T11:38:02.872Z,1000.43
2019-02-18T11:39:14.107Z,999.83
2019-02-18T11:40:25.336Z,998.97
2019-02-18T11:41:36.549Z,998.24
2019-02-18T11:42:47.799Z,997.54
2019-02-18T11:43:59.012Z,996.86
2019-02-18T11:45:10.240Z,996.26
2019-02-18T11:46:21.485Z,995.90
2019-02-18T11:47:32.750Z,995.89
2019-02-18T11:48:44.040Z,995.57
2019-02-18T11:49:55.412Z,995.33
2019-02-18T11:51:06.651Z,995.00
2019-02-18T11:52:17.999Z,994.73
2019-02-18T11:53:29.370Z,994.39
2019-02-18T11:54:40.758Z,993.99
2019-02-18T11:55:52.177Z,993.84
2019-02-18T11:57:03.630Z,993.65
2019-02-18T11:58:15.106Z,993.87
2019-02-18T11:59:26.619Z,993.70
2019-02-18T12:00:38.128Z,993.64
2019-02-18T12:01:49.668Z,993.52
2019-02-18T12:03:04.821Z,993.37
2019-02-18T12:04:12.812Z,993.21
2019-02-18T12:05:24.409Z,993.04
2019-02-18T12:06:36.020Z,992.97
2019-02-18T12:07:47.665Z,993.12
2019-02-18T12:08:59.332Z,993.12
2019-02-18T12:10:12.013Z,993.10
2019-02-18T12:11:23.691Z,993.05
2019-02-18T12:12:35.393Z,993.13
2019-02-18T12:13:47.123Z,993.14
2019-02-18T12:14:58.856Z,993.16
2019-02-18T12:16:10.666Z,993.25
2019-02-18T12:17:22.388Z,993.78
2019-02-18T12:18:34.146Z,993.86
2019-02-18T12:19:45.920Z,993.85
2019-02-18T12:20:57.712Z,993.75
2019-02-18T12:22:11.959Z,993.74
2019-02-18T12:23:21.301Z,993.78
2019-02-18T12:24:33.125Z,993.76
2019-02-18T12:25:44.953Z,993.84
2019-02-18T12:26:56.784Z,993.86
2019-02-18T12:28:08.631Z,993.91
2019-02-18T12:29:26.218Z,993.87
2019-02-18T12:30:32.656Z,993.91
2019-02-18T12:31:44.628Z,993.98
2019-02-18T12:32:56.629Z,993.90
2019-02-18T12:34:08.625Z,993.92
2019-02-18T12:35:30.277Z,993.97
2019-02-18T12:36:32.627Z,993.99
2019-02-18T12:37:54.974Z,993.99
2019-02-18T12:39:11.813Z,993.96
2019-02-18T12:40:24.024Z,994.00
2019-02-18T12:41:35.936Z,993.99
2019-02-18T12:42:47.843Z,994.07
2019-02-18T12:43:59.791Z,994.16
2019-02-18T12:45:11.711Z,994.18
2019-02-18T12:46:23.648Z,994.21
2019-02-18T12:47:35.567Z,994.28
2019-02-18T12:48:47.513Z,994.26
2019-02-18T12:49:59.454Z,994.20
2019-02-18T12:51:11.390Z,994.13
2019-02-18T12:52:23.327Z,994.15
2019-02-18T12:53:35.270Z,994.10
2019-02-18T12:54:47.372Z,994.13
2019-02-18T12:55:59.167Z,994.15
2019-02-18T12:57:11.134Z,994.09
2019-02-18T12:58:23.089Z,994.14
2019-02-18T12:59:35.139Z,994.11
2019-02-18T13:00:47.016Z,994.05
2019-02-18T13:01:58.984Z,994.05
2019-02-18T13:03:10.951Z,994.08
2019-02-18T13:04:22.918Z,993.98
2019-02-18T13:05:34.882Z,993.91
2019-02-18T13:06:46.847Z,993.95
2019-02-18T13:07:58.820Z,993.86
2019-02-18T13:09:10.804Z,993.92
2019-02-18T13:12:48.039Z,993.84
2019-02-18T13:14:00.046Z,993.82
2019-02-18T13:15:12.037Z,993.75
2019-02-18T13:16:24.012Z,993.76
2019-02-18T13:17:36.010Z,993.78
2019-02-18T13:18:47.966Z,993.76
2019-02-18T13:19:59.942Z,993.76
2019-02-18T13:21:11.935Z,993.81
2019-02-18T13:22:23.921Z,993.91
2019-02-18T13:23:35.894Z,994.30
2019-02-18T13:24:47.873Z,994.67
2019-02-18T13:25:59.835Z,995.14
2019-02-18T13:27:11.802Z,995.53
2019-02-18T13:28:23.751Z,995.80
2019-02-18T13:29:35.678Z,996.03
2019-02-18T13:30:47.589Z,996.33
2019-02-18T13:31:59.464Z,996.60
2019-02-18T13:33:11.314Z,996.88
2019-02-18T13:34:23.153Z,997.08
2019-02-18T13:35:34.971Z,997.19
2019-02-18T13:36:46.757Z,997.43
2019-02-18T13:37:58.646Z,997.51
2019-02-18T13:39:10.388Z,997.74
2019-02-18T13:40:22.119Z,997.79
2019-02-18T13:41:33.819Z,997.88
2019-02-18T13:42:45.507Z,997.92
2019-02-18T13:43:57.174Z,998.03
2019-02-18T13:45:08.821Z,998.12
2019-02-18T13:46:20.628Z,998.24
2019-02-18T13:47:32.262Z,998.44
2019-02-18T13:48:43.882Z,998.48
2019-02-18T13:49:55.519Z,998.26
2019-02-18T13:51:07.109Z,997.87
2019-02-18T13:52:18.710Z,997.35
2019-02-18T13:53:30.298Z,996.98
2019-02-18T13:54:41.931Z,996.68
2019-02-18T13:55:53.528Z,996.40
2019-02-18T13:57:09.932Z,996.14
2019-02-18T13:58:17.108Z,995.90
2019-02-18T13:59:28.707Z,995.71
2019-02-18T14:00:40.316Z,995.51
2019-02-18T14:01:51.978Z,995.47
2019-02-18T14:03:03.602Z,995.33
2019-02-18T14:04:15.287Z,995.22
2019-02-18T14:05:26.902Z,994.98
2019-02-18T14:06:39.559Z,994.91
2019-02-18T14:07:51.232Z,994.86
2019-02-18T14:09:02.915Z,994.78
2019-02-18T14:10:14.631Z,994.66
2019-02-18T14:11:26.336Z,994.65
2019-02-18T14:12:38.028Z,994.48
2019-02-18T14:13:49.748Z,994.33
2019-02-18T14:15:01.470Z,994.33
2019-02-18T14:16:13.185Z,994.27
2019-02-18T14:17:24.914Z,994.16
2019-02-18T14:18:36.638Z,994.21
2019-02-18T14:19:49.362Z,994.20
2019-02-18T14:21:01.110Z,994.17
2019-02-18T14:22:12.872Z,994.13
2019-02-18T14:23:24.627Z,994.12
2019-02-18T14:24:36.378Z,994.06
2019-02-18T14:25:48.134Z,994.02
2019-02-18T14:26:59.898Z,993.97
2019-02-18T14:28:11.697Z,994.02
2019-02-18T14:29:23.434Z,994.00
2019-02-18T14:30:35.191Z,994.03
2019-02-18T14:31:46.932Z,994.14
2019-02-18T14:32:58.656Z,994.14